Latest Weather Observations for Tindal

IDD60801

Issued at 5:31 pm CST Thursday 23 March 2017 (issued every 30 minutes, with the page automatically refreshed every 10 minutes)

About weather observations | Map of weather stations | Latest weather observations for NT | Other Formats
Station Details ID: 014932 Name: TINDAL RAAF Lat: -14.52 Lon: 132.38 Height: 133.6 m
Data from the previous 72 hours. | See also: Recent months at Tindal
Date/Time
CST
Temp
°C
App
Temp
°C
Dew
Point
°C
Rel
Hum
%
Delta-T
°C
Wind Press
QNH
hPa
Press
MSL
hPa
Rain since
9am
mm
Dir  Spd
km/h
Gust
km/h
Spd
kts
Gust
kts
23/05:00pm 31.2 35.5 23.3 63 5.5 WNW 6 7 3 4 1006.7 1005.8 0.8
23/04:30pm 31.2 36.6 23.3 63 5.5 CALM 0 2 0 1 1006.9 1006.0 0.8
23/04:00pm 29.5 32.7 23.0 68 4.5 N 11 17 6 9 1007.2 1006.3 0.8
23/03:30pm 29.4 33.6 22.4 66 4.8 NNE 4 9 2 5 1007.4 1006.5 0.8
23/03:00pm 28.0 31.8 23.4 76 3.2 NE 9 19 5 10 1008.1 1007.1 0.8
23/02:41pm 27.7 29.3 22.9 75 3.3 ESE 19 26 10 14 1008.4 1007.4 0.4
23/02:30pm 31.5 33.5 22.2 57 6.4 ESE 15 20 8 11 1008.4 1007.4 0.0
23/02:00pm 33.3 37.2 23.0 54 7.1 SSE 7 13 4 7 1008.6 1007.6 0.0
23/01:30pm 33.2 38.3 24.1 59 6.4 SSW 4 9 2 5 1009.0 1008.0 0.0
23/01:00pm 32.6 36.6 23.8 59 6.2 SSE 9 11 5 6 1009.6 1008.6 0.0
23/12:30pm 32.4 37.2 24.4 62 5.6 SW 7 11 4 6 1009.7 1008.7 0.0
23/12:00pm 32.0 36.2 23.5 60 5.9 W 7 11 4 6 1010.4 1009.4 0.0
23/11:30am 31.6 36.1 24.0 64 5.3 WNW 7 9 4 5 1010.8 1009.8 0.0
23/11:00am 30.8 35.3 23.7 66 4.9 SSW 6 9 3 5 1011.1 1010.1 0.0
23/10:30am 30.5 35.5 23.2 65 5.0 WNW 2 7 1 4 1011.2 1010.2 0.0
23/10:00am 29.6 34.2 23.8 71 4.0 NNW 6 11 3 6 1011.2 1010.2 0.0
23/09:30am 28.8 33.6 23.5 73 3.7 WNW 4 11 2 6 1011.3 1010.4 0.0
23/09:00am 27.5 31.9 23.5 79 2.8 WSW 6 9 3 5 1011.0 1010.0 0.0
23/08:30am 26.2 31.8 23.5 85 1.9 CALM 0 0 0 0 1010.7 1009.7 0.0
23/08:00am 25.4 30.8 23.3 88 1.4 CALM 0 0 0 0 1010.6 1009.6 0.0
23/07:30am 24.8 30.3 23.4 92 1.0 CALM 0 0 0 0 1010.1 1009.1 0.0
23/07:00am 24.6 29.6 23.2 92 1.0 W 2 7 1 4 1009.8 1008.8 0.0
23/06:30am 24.6 28.7 23.2 92 1.0 WNW 7 9 4 5 1009.7 1008.7 0.0
23/06:00am 24.8 29.3 23.6 93 0.8 W 6 9 3 5 1009.8 1008.8 0.0
23/05:30am 24.8 29.2 23.4 92 1.0 WNW 6 7 3 4 1009.5 1008.5 0.0
23/05:00am 24.9 30.0 23.3 91 1.1 WSW 2 7 1 4 1009.4 1008.4 0.0
23/04:30am 24.9 29.0 23.3 91 1.1 NNW 7 9 4 5 1009.2 1008.2 0.0
23/04:00am 25.0 29.6 23.2 90 1.2 NW 4 9 2 5 1008.9 1007.9 0.0
23/03:30am 25.1 30.5 23.2 89 1.3 CALM 0 0 0 0 1008.7 1007.7 0.0
23/03:00am 25.2 30.4 22.9 87 1.6 CALM 0 2 0 1 1008.5 1007.5 0.0
23/02:30am 25.1 30.5 23.3 90 1.2 CALM 0 0 0 0 1009.1 1008.1 0.0
23/02:00am 25.1 30.4 23.0 88 1.4 CALM 0 0 0 0 1009.4 1008.4 0.0
23/01:30am 25.0 30.4 23.2 90 1.2 CALM 0 0 0 0 1009.8 1008.8 0.0
23/01:00am 24.9 29.5 23.1 90 1.2 NW 4 7 2 4 1010.2 1009.2 0.0
23/12:30am 24.9 28.9 23.1 90 1.2 WNW 7 7 4 4 1010.5 1009.5 0.0
23/12:00am 24.9 29.0 23.0 89 1.3 NNW 6 9 3 5 1010.8 1009.8 0.0
 
Date/Time
CST
Temp
°C
App
Temp
°C
Dew
Point
°C
Rel
Hum
%
Delta-T
°C
Wind Press
QNH
hPa
Press
MSL
hPa
Rain since
9am
mm
Dir  Spd
km/h
Gust
km/h
Spd
kts
Gust
kts
22/11:30pm 25.2 29.3 22.9 87 1.6 NW 6 9 3 5 1010.8 1009.8 0.0
22/11:00pm 25.9 30.2 22.6 82 2.2 N 4 7 2 4 1010.7 1009.7 0.0
22/10:30pm 26.2 30.2 23.1 83 2.1 NE 7 11 4 6 1010.8 1009.8 0.0
22/10:00pm 26.5 30.2 22.3 78 2.8 NNW 6 7 3 4 1010.5 1009.5 0.0
22/09:30pm 27.2 29.9 22.2 74 3.4 N 11 17 6 9 1010.6 1009.6 0.0
22/09:00pm 28.4 30.4 22.9 72 3.8 N 17 32 9 17 1010.6 1009.6 0.0
22/08:30pm 28.2 32.0 22.7 72 3.8 NW 7 11 4 6 1009.9 1008.9 0.0
22/08:00pm 28.6 32.7 23.3 73 3.6 ESE 7 9 4 5 1009.0 1008.0 0.0
22/07:30pm 29.5 33.4 23.0 68 4.5 E 7 9 4 5 1008.4 1007.4 0.0
22/07:00pm 30.6 33.7 22.2 61 5.7 E 9 11 5 6 1007.7 1006.8 0.0
22/06:30pm 32.0 34.9 21.8 54 7.0 ESE 9 13 5 7 1007.4 1006.5 0.0
22/06:00pm 33.2 36.1 21.7 51 7.9 E 9 13 5 7 1006.8 1005.9 0.0
22/05:30pm 33.9 36.8 21.0 47 8.7 E 7 11 4 6 1006.7 1005.8 0.0
22/05:00pm 34.1 37.1 21.2 47 8.8 E 7 17 4 9 1006.8 1005.9 0.0
22/04:30pm 34.3 37.0 21.4 47 8.8 ENE 9 17 5 9 1006.8 1005.9 0.0
22/04:00pm 34.1 37.2 22.2 50 8.2 E 9 13 5 7 1006.9 1006.0 0.0
22/03:30pm 33.4 35.8 21.5 49 8.1 NE 11 17 6 9 1007.0 1006.1 0.0
22/03:00pm 34.5 37.6 21.5 46 8.9 ENE 7 15 4 8 1007.2 1006.3 0.0
22/02:30pm 33.5 37.6 22.9 53 7.4 NNW 6 7 3 4 1007.6 1006.7 0.0
22/02:00pm 33.0 37.7 23.3 56 6.7 SW 4 13 2 7 1008.3 1007.3 0.0
22/01:30pm 32.7 36.5 22.8 56 6.8 NNW 7 15 4 8 1008.8 1007.8 0.0
22/01:00pm 32.4 36.4 22.8 57 6.6 WNW 6 15 3 8 1009.4 1008.4 0.0
22/12:30pm 31.9 36.0 22.9 59 6.2 NNE 6 11 3 6 1009.9 1008.9 0.0
22/12:00pm 31.1 35.0 24.2 66 4.8 N 11 17 6 9 1010.5 1009.5 0.0
22/11:30am 31.0 34.8 24.1 66 4.8 WSW 11 15 6 8 1010.6 1009.6 0.0
22/11:00am 29.7 34.4 23.9 71 4.0 SW 6 11 3 6 1010.6 1009.6 0.0
22/10:30am 29.7 34.2 23.6 69 4.2 NNW 6 9 3 5 1011.0 1010.0 0.0
22/10:00am 28.7 33.4 24.3 77 3.1 WNW 7 15 4 8 1011.2 1010.2 0.0
22/09:30am 27.4 31.3 23.6 80 2.6 NW 9 13 5 7 1011.2 1010.2 0.0
22/09:00am 27.0 32.3 23.7 82 2.3 WNW 2 9 1 5 1011.3 1010.4 27.2
22/08:30am 25.9 31.6 23.8 88 1.4 CALM 0 0 0 0 1011.3 1010.4 27.2
22/08:00am 25.1 30.5 23.3 90 1.2 CALM 0 0 0 0 1010.9 1009.9 27.2
22/07:30am 24.6 30.3 23.7 95 0.6 CALM 0 0 0 0 1010.4 1009.4 27.2
22/07:00am 23.7 28.9 22.9 95 0.5 CALM 0 0 0 0 1010.0 1009.0 27.2
22/06:30am 23.6 28.8 22.8 95 0.5 CALM 0 0 0 0 1010.0 1009.0 27.2
22/06:00am 23.9 29.2 23.0 95 0.6 CALM 0 0 0 0 1009.8 1008.8 27.2
22/05:30am 23.8 29.1 23.0 95 0.5 CALM 0 0 0 0 1009.5 1008.5 27.2
22/05:00am 23.7 27.6 22.9 95 0.5 SE 7 7 4 4 1009.3 1008.3 27.2
22/04:30am 23.9 28.0 22.9 94 0.7 SSE 6 9 3 5 1009.3 1008.3 27.2
22/04:00am 24.1 29.4 23.1 94 0.7 CALM 0 0 0 0 1009.1 1008.1 27.2
22/03:30am 24.4 29.9 23.4 94 0.7 CALM 0 0 0 0 1009.1 1008.1 27.2
22/03:00am 24.4 28.6 23.2 93 0.8 ESE 6 7 3 4 1009.5 1008.5 27.2
22/02:30am 24.7 30.3 23.5 93 0.8 CALM 0 0 0 0 1009.6 1008.6 27.2
22/02:00am 24.9 30.3 23.3 91 1.1 CALM 0 0 0 0 1009.7 1008.7 27.2
22/01:30am 25.1 30.5 23.2 89 1.3 CALM 0 7 0 4 1009.7 1008.7 27.0
22/01:00am 25.3 29.0 23.2 88 1.4 N 9 13 5 7 1010.2 1009.2 27.0
22/12:30am 25.6 29.1 23.5 88 1.4 N 11 15 6 8 1010.5 1009.5 27.0
22/12:00am 25.6 29.6 23.8 90 1.2 NE 9 13 5 7 1010.7 1009.7 27.0
 
Date/Time
CST
Temp
°C
App
Temp
°C
Dew
Point
°C
Rel
Hum
%
Delta-T
°C
Wind Press
QNH
hPa
Press
MSL
hPa
Rain since
9am
mm
Dir  Spd
km/h
Gust
km/h
Spd
kts
Gust
kts
21/11:30pm 25.5 30.2 24.3 93 0.8 E 7 11 4 6 1010.9 1009.9 27.0
21/11:00pm 25.4 30.2 24.4 94 0.7 E 7 9 4 5 1011.0 1010.0 27.0
21/10:30pm 25.5 31.6 24.5 94 0.7 CALM 0 0 0 0 1010.8 1009.8 27.0
21/10:00pm 25.4 31.4 24.2 93 0.8 CALM 0 0 0 0 1010.7 1009.7 27.0
21/09:30pm 25.5 30.3 24.1 92 1.0 NE 6 9 3 5 1010.5 1009.5 27.0
21/09:00pm 25.3 31.1 23.9 92 1.0 CALM 0 0 0 0 1010.0 1009.0 27.0
21/08:30pm 25.1 29.6 23.9 93 0.8 N 7 11 4 6 1009.3 1008.3 27.0
21/08:00pm 24.6 28.0 23.4 93 0.8 E 11 17 6 9 1008.9 1007.9 27.0
21/07:32pm 24.5 28.7 23.5 94 0.7 ENE 7 11 4 6 1008.6 1007.6 27.0
21/07:30pm 24.6 29.1 23.6 94 0.7 ENE 6 11 3 6 1008.6 1007.6 27.0
21/07:00pm 24.2 26.2 23.0 93 0.8 ESE 17 20 9 11 1008.8 1007.8 24.8
21/06:31pm 24.9 26.7 23.5 92 1.0 E 20 30 11 16 1008.8 1007.8 18.8
21/06:30pm 24.9 26.7 23.5 92 1.0 E 20 30 11 16 1008.8 1007.8 18.4
21/06:00pm 25.9 31.2 24.3 91 1.1 NW 4 11 2 6 1008.2 1007.2 17.8
21/05:30pm 25.5 26.8 24.1 92 1.0 NW 24 33 13 18 1007.3 1006.4 17.8
21/05:00pm 25.8 26.6 22.5 82 2.2 N 22 43 12 23 1007.4 1006.5 12.6
21/04:54pm 27.7 29.8 24.1 81 2.5 NNE 20 30 11 16 1007.1 1006.2 3.6
21/04:30pm 28.6 31.2 24.6 79 2.8 NNW 19 24 10 13 1006.2 1005.3 0.6
21/04:04pm 29.7 32.4 24.1 72 3.9 E 17 33 9 18 1006.2 1005.3 0.6
21/04:00pm 29.7 30.8 23.6 69 4.2 E 24 37 13 20 1006.1 1005.2 0.6
21/03:52pm 33.3 34.5 22.1 52 7.7 SE 19 37 10 20 1006.0 1005.1 0.0
21/03:30pm 34.9 37.7 21.6 46 9.1 SW 9 15 5 8 1005.9 1005.0 0.0
21/03:00pm 34.0 37.2 22.4 50 8.0 SE 9 15 5 8 1006.2 1005.3 0.0
21/02:30pm 34.1 37.8 23.2 53 7.6 SSW 9 15 5 8 1006.4 1005.5 0.0
21/02:00pm 33.4 37.4 23.7 56 6.8 ESE 9 15 5 8 1007.2 1006.3 0.0
21/01:30pm 31.9 34.6 22.9 59 6.2 SE 13 15 7 8 1007.7 1006.8 0.0
21/01:00pm 32.8 36.5 22.6 55 7.0 N 7 15 4 8 1008.5 1007.5 0.0
21/12:30pm 32.7 37.4 23.9 60 6.2 W 6 13 3 7 1009.0 1008.0 0.0
21/12:00pm 31.6 35.3 23.2 61 5.8 ENE 9 11 5 6 1009.2 1008.2 0.0
21/11:30am 31.1 36.6 24.0 66 5.0 N 2 7 1 4 1009.7 1008.7 0.0
21/11:00am 30.1 34.5 23.5 67 4.6 WSW 6 13 3 7 1010.2 1009.2 0.0
21/10:30am 29.1 33.1 23.8 73 3.7 W 9 17 5 9 1010.4 1009.4 0.0
21/10:28am 29.0 32.4 23.4 72 3.9 W 11 17 6 9 1010.4 1009.4 0.0
21/10:00am 28.0 31.8 23.4 76 3.2 WSW 9 13 5 7 1010.5 1009.5 0.0
21/09:30am 27.2 31.0 23.4 80 2.6 NNW 9 13 5 7 1010.5 1009.5 0.0
21/09:09am 27.1 31.8 24.0 83 2.1 WNW 6 11 3 6 1010.6 1009.6 0.0
21/09:00am 26.6 32.0 23.9 85 1.9 WNW 2 7 1 4 1010.6 1009.6 0.2
21/08:30am 25.8 30.3 23.7 88 1.4 SW 6 9 3 5 1010.3 1009.3 0.2
21/08:00am 25.2 30.7 23.4 90 1.2 CALM 0 6 0 3 1010.1 1009.1 0.2
21/07:50am 24.9 30.3 23.3 91 1.1 CALM 0 0 0 0 1010.0 1009.0 0.2
21/07:30am 24.6 30.1 23.4 93 0.8 CALM 0 0 0 0 1009.8 1008.8 0.2
21/07:11am 24.3 29.7 23.3 94 0.7 CALM 0 0 0 0 1009.7 1008.7 0.2
21/07:00am 24.2 29.5 23.0 93 0.8 CALM 0 0 0 0 1009.6 1008.6 0.2
21/06:30am 24.3 29.2 23.1 93 0.8 WNW 2 6 1 3 1009.4 1008.4 0.2
21/06:00am 24.5 29.9 23.3 93 0.8 CALM 0 0 0 0 1009.2 1008.2 0.2
21/05:30am 24.2 29.5 23.0 93 0.8 CALM 0 0 0 0 1008.9 1007.9 0.2
21/05:00am 24.3 29.6 23.1 93 0.8 CALM 0 0 0 0 1008.7 1007.7 0.2
21/04:30am 24.3 29.6 23.1 93 0.8 CALM 0 0 0 0 1008.7 1007.7 0.2
21/04:00am 24.4 29.7 23.0 92 0.9 CALM 0 0 0 0 1008.7 1007.7 0.2
21/03:30am 24.6 29.9 23.0 91 1.1 CALM 0 0 0 0 1008.5 1007.5 0.2
21/03:00am 24.8 30.1 23.0 90 1.2 CALM 0 7 0 4 1008.5 1007.5 0.2
21/02:30am 25.0 30.3 23.1 89 1.3 CALM 0 6 0 3 1008.7 1007.7 0.2
21/02:00am 25.0 30.3 23.1 89 1.3 CALM 0 0 0 0 1008.9 1007.9 0.2
21/01:30am 25.1 28.9 22.8 87 1.6 NNW 7 9 4 5 1009.2 1008.2 0.2
21/01:00am 25.5 29.2 22.6 84 2.0 NNW 7 9 4 5 1009.2 1008.2 0.2
21/12:30am 26.2 29.1 22.5 80 2.5 NNE 11 15 6 8 1009.7 1008.7 0.2
21/12:00am 26.9 28.3 22.5 77 3.0 NNE 19 24 10 13 1009.6 1008.6 0.2
 
Date/Time
CST
Temp
°C
App
Temp
°C
Dew
Point
°C
Rel
Hum
%
Delta-T
°C
Wind Press
QNH
hPa
Press
MSL
hPa
Rain since
9am
mm
Dir  Spd
km/h
Gust
km/h
Spd
kts
Gust
kts
20/11:30pm 26.5 30.6 24.0 86 1.7 NE 9 11 5 6 1009.5 1008.5 0.2
20/11:00pm 26.1 31.5 23.8 87 1.6 NE 2 9 1 5 1009.4 1008.4 0.2
20/10:30pm 26.2 30.5 23.7 86 1.7 NW 7 9 4 5 1009.5 1008.5 0.2
20/10:00pm 26.8 32.1 23.1 80 2.5 CALM 0 7 0 4 1009.4 1008.4 0.2
20/09:30pm 27.3 31.1 22.7 76 3.1 N 7 11 4 6 1009.5 1008.5 0.2
20/09:00pm 28.2 31.3 22.9 73 3.6 N 11 15 6 8 1009.2 1008.2 0.2
20/08:30pm 28.1 32.2 23.2 74 3.4 E 7 11 4 6 1008.8 1007.8 0.2
20/08:00pm 28.5 32.3 23.4 74 3.5 E 9 9 5 5 1008.5 1007.5 0.2
20/07:30pm 28.6 32.7 23.3 73 3.7 E 7 9 4 5 1007.8 1006.9 0.2
20/07:00pm 29.7 33.5 23.4 69 4.4 E 9 11 5 6 1007.4 1006.5 0.2
20/06:30pm 30.9 34.7 22.8 62 5.6 E 7 11 4 6 1006.5 1005.6 0.2
20/06:00pm 31.7 35.0 21.8 55 6.7 ENE 7 11 4 6 1006.3 1005.4 0.2

Other Formats:

Comma delimited format used in spreadsheet applications
http://www.bom.gov.au/fwo/IDD60801/IDD60801.94131.axf

JavaScript Object Notation format (JSON) in row-major order
http://www.bom.gov.au/fwo/IDD60801/IDD60801.94131.json